Time;durP1;ratioP1;P1;durP2;ratioP2;P2;SDS_P1;SDS_P2;PMS_P1;PMS_P2;Temp;Humidity;BMP_temperature;BMP_pressure;BME280_temperature;BME280_humidity;BME280_pressure;Samples;Min_cycle;Max_cycle;Signal;HPM_P1;HPM_P2
2023/07/30 00:02:09;;;;;;;1.60;0.90;;;;;;;16.87;100.00;99903.69;5209792;28;20039;-76
2023/07/30 00:04:39;;;;;;;3.27;1.10;;;;;;;16.98;100.00;99901.13;5209840;28;20837;-76
2023/07/30 00:07:11;;;;;;;3.70;0.90;;;;;;;16.90;100.00;99906.09;5210597;28;20692;-74
2023/07/30 00:09:41;;;;;;;1.20;0.90;;;;;;;16.98;100.00;99907.22;5211487;28;20033;-76
2023/07/30 00:12:11;;;;;;;2.80;0.85;;;;;;;16.96;100.00;99909.13;5212806;28;20040;-76
2023/07/30 00:14:41;;;;;;;1.50;1.00;;;;;;;16.99;100.00;99913.38;5215989;28;20090;-76
2023/07/30 00:17:12;;;;;;;1.65;0.90;;;;;;;16.84;100.00;99915.28;5214770;28;20041;-75
2023/07/30 00:19:42;;;;;;;1.17;0.80;;;;;;;16.91;100.00;99905.13;5212858;28;20048;-76
2023/07/30 00:22:12;;;;;;;1.67;1.05;;;;;;;16.89;100.00;99907.91;5212602;28;20032;-76
2023/07/30 00:24:42;;;;;;;1.73;1.05;;;;;;;16.92;100.00;99907.69;5212558;28;20029;-76
2023/07/30 00:27:13;;;;;;;1.83;0.90;;;;;;;16.82;100.00;99911.09;5213391;28;20037;-74
2023/07/30 00:29:43;;;;;;;3.83;0.93;;;;;;;16.74;100.00;99910.78;5215234;28;20302;-76
2023/07/30 00:32:15;;;;;;;1.50;0.90;;;;;;;16.79;100.00;99916.59;5213092;28;20120;-76
2023/07/30 00:34:46;;;;;;;1.45;0.90;;;;;;;16.78;100.00;99912.28;5213539;28;20279;-76
2023/07/30 00:37:16;;;;;;;1.40;0.90;;;;;;;16.81;100.00;99920.78;5212116;28;20040;-74
2023/07/30 00:39:46;;;;;;;1.10;0.80;;;;;;;16.70;100.00;99922.50;5213731;28;20107;-76
2023/07/30 00:42:16;;;;;;;1.33;0.90;;;;;;;16.56;100.00;99925.28;5214142;28;20283;-76
2023/07/30 00:44:47;;;;;;;1.83;1.00;;;;;;;16.39;100.00;99925.59;5213845;28;20028;-76
2023/07/30 00:47:17;;;;;;;1.67;1.20;;;;;;;16.55;100.00;99920.94;5214889;28;20028;-76
2023/07/30 00:49:49;;;;;;;1.35;0.80;;;;;;;16.55;100.00;99923.59;5210170;28;20383;-73
2023/07/30 00:52:21;;;;;;;1.45;1.08;;;;;;;16.56;100.00;99921.81;5212231;28;20487;-76
2023/07/30 00:54:53;;;;;;;1.75;0.90;;;;;;;16.54;100.00;99921.06;5209203;28;20361;-73
2023/07/30 00:57:24;;;;;;;2.65;0.90;;;;;;;16.42;100.00;99928.03;5213131;28;20028;-76
2023/07/30 00:59:56;;;;;;;2.03;0.98;;;;;;;16.49;100.00;99925.81;5213230;28;20119;-73
2023/07/30 01:02:27;;;;;;;2.95;1.10;;;;;;;16.55;100.00;99922.75;5215136;28;20029;-77
2023/07/30 01:05:00;;;;;;;1.80;1.10;;;;;;;16.65;100.00;99921.13;5208993;28;20112;-76
2023/07/30 01:07:31;;;;;;;1.83;1.05;;;;;;;16.80;100.00;99924.38;5215220;28;20095;-76
2023/07/30 01:10:02;;;;;;;1.48;0.80;;;;;;;16.65;100.00;99931.69;5217142;28;20029;-76
2023/07/30 01:12:34;;;;;;;4.88;0.95;;;;;;;16.64;100.00;99938.78;5220421;28;20033;-77
2023/07/30 01:15:06;;;;;;;1.05;0.90;;;;;;;16.69;100.00;99935.84;5215045;28;21173;-76
2023/07/30 01:17:36;;;;;;;1.45;0.80;;;;;;;16.64;100.00;99943.22;5213311;28;20021;-73
2023/07/30 01:20:07;;;;;;;2.85;0.95;;;;;;;16.74;100.00;99947.72;5214565;28;21184;-77
2023/07/30 01:22:37;;;;;;;2.95;1.45;;;;;;;16.82;100.00;99940.13;5206422;28;20087;-75
2023/07/30 01:25:09;;;;;;;2.80;1.15;;;;;;;16.82;100.00;99940.94;5207816;28;20456;-77
2023/07/30 01:27:44;;;;;;;3.53;1.20;;;;;;;16.90;100.00;99943.06;5213857;28;20029;-76
2023/07/30 01:30:41;;;;;;;2.55;1.30;;;;;;;17.02;100.00;99940.41;5218623;28;20684;-77
2023/07/30 01:33:12;;;;;;;2.08;1.10;;;;;;;17.14;100.00;99941.31;5213958;28;20041;-77
2023/07/30 01:35:43;;;;;;;4.80;1.30;;;;;;;17.20;100.00;99944.34;5216238;28;20025;-77
2023/07/30 01:38:14;;;;;;;2.38;1.40;;;;;;;17.32;100.00;99937.31;5217837;28;20094;-76
2023/07/30 01:40:44;;;;;;;1.83;1.20;;;;;;;17.39;100.00;99936.81;5214199;28;20024;-77
2023/07/30 01:43:15;;;;;;;2.70;1.30;;;;;;;17.47;100.00;99938.88;5214496;28;20108;-77
2023/07/30 01:45:45;;;;;;;1.92;1.15;;;;;;;17.51;100.00;99942.97;5214164;28;20032;-77
2023/07/30 01:48:15;;;;;;;1.67;1.20;;;;;;;17.56;100.00;99946.13;5214381;28;20394;-76
2023/07/30 01:50:48;;;;;;;2.65;1.10;;;;;;;17.59;100.00;99951.16;5213130;28;20287;-76
2023/07/30 01:53:18;;;;;;;1.95;1.27;;;;;;;17.60;100.00;99948.41;5214886;28;20028;-76
2023/07/30 01:55:49;;;;;;;2.57;1.30;;;;;;;17.67;100.00;99954.94;5217925;28;20462;-75
2023/07/30 01:58:19;;;;;;;4.53;1.48;;;;;;;17.75;100.00;99964.94;5211157;28;20275;-76
2023/07/30 02:00:49;;;;;;;3.08;1.50;;;;;;;17.75;100.00;99957.84;5212507;28;20027;-75
2023/07/30 02:03:19;;;;;;;3.17;1.35;;;;;;;17.81;100.00;99956.56;5209689;28;20542;-76
2023/07/30 02:05:50;;;;;;;2.17;1.30;;;;;;;17.86;100.00;99960.53;5213224;28;20041;-76
2023/07/30 02:08:20;;;;;;;4.18;1.88;;;;;;;17.88;100.00;99957.78;5218728;28;20029;-77
2023/07/30 02:10:58;;;;;;;4.32;1.40;;;;;;;17.95;100.00;99951.91;5218313;28;20032;-76
2023/07/30 02:13:28;;;;;;;4.18;1.92;;;;;;;17.98;100.00;99953.50;5217446;28;20029;-77
2023/07/30 02:15:58;;;;;;;2.75;1.33;;;;;;;18.05;100.00;99960.00;5211283;28;20043;-77
2023/07/30 02:18:28;;;;;;;3.63;1.45;;;;;;;18.08;100.00;99954.47;5207029;28;20053;-77
2023/07/30 02:20:59;;;;;;;2.38;1.30;;;;;;;18.18;100.00;99955.47;5212275;28;20029;-76
2023/07/30 02:23:29;;;;;;;1.83;1.10;;;;;;;18.16;100.00;99952.94;5219527;28;20480;-77
2023/07/30 02:25:59;;;;;;;2.65;1.17;;;;;;;18.20;100.00;99950.91;5215547;28;20851;-77
2023/07/30 02:28:30;;;;;;;2.85;1.38;;;;;;;18.19;100.00;99943.94;5212853;28;20529;-77
2023/07/30 02:31:00;;;;;;;1.70;1.10;;;;;;;18.19;100.00;99946.56;5217016;28;20044;-77
2023/07/30 02:33:30;;;;;;;2.30;1.33;;;;;;;18.27;100.00;99945.06;5215142;28;20043;-77
2023/07/30 02:36:01;;;;;;;2.20;1.20;;;;;;;18.29;100.00;99958.16;5214556;28;20037;-76
2023/07/30 02:38:31;;;;;;;2.28;1.13;;;;;;;18.30;100.00;99950.09;5211966;28;20041;-77
2023/07/30 02:41:01;;;;;;;2.40;1.17;;;;;;;18.30;100.00;99951.91;5215397;28;20032;-77
2023/07/30 02:43:32;;;;;;;2.70;1.40;;;;;;;18.34;100.00;99962.13;5214747;28;20108;-77
2023/07/30 02:46:02;;;;;;;1.47;1.00;;;;;;;18.37;100.00;99955.78;5215007;28;20626;-77
2023/07/30 02:48:32;;;;;;;2.70;1.15;;;;;;;18.37;100.00;99955.78;5211234;28;20276;-77
2023/07/30 02:51:03;;;;;;;3.85;1.20;;;;;;;18.39;100.00;99962.63;5209067;28;20120;-77
2023/07/30 02:53:33;;;;;;;1.50;1.08;;;;;;;18.33;100.00;99972.84;5215517;28;20645;-77
2023/07/30 02:56:03;;;;;;;2.42;1.02;;;;;;;18.26;100.00;99967.16;5211217;28;20034;-77
2023/07/30 02:58:34;;;;;;;2.35;1.10;;;;;;;18.26;100.00;99974.22;5209462;28;20032;-77
2023/07/30 03:01:07;;;;;;;2.25;1.10;;;;;;;18.19;100.00;99983.59;5209426;28;20693;-77
2023/07/30 03:03:37;;;;;;;4.40;1.80;;;;;;;18.17;100.00;99980.22;5205816;28;20120;-77
2023/07/30 03:06:07;;;;;;;3.30;1.35;;;;;;;18.14;100.00;99983.13;5207752;28;20119;-77
2023/07/30 03:08:38;;;;;;;2.08;1.20;;;;;;;18.11;100.00;99991.25;5207444;28;20033;-77
2023/07/30 03:11:09;;;;;;;2.88;1.30;;;;;;;18.04;100.00;99998.81;5208826;28;20148;-77
2023/07/30 03:13:39;;;;;;;3.42;1.15;;;;;;;17.99;100.00;99994.84;5208266;28;20029;-76
2023/07/30 03:16:09;;;;;;;1.90;1.20;;;;;;;18.00;100.00;99996.53;5210596;28;20021;-77
2023/07/30 03:18:39;;;;;;;3.15;1.30;;;;;;;17.87;100.00;99993.97;5204399;28;20095;-77
2023/07/30 03:21:10;;;;;;;3.63;1.10;;;;;;;17.82;100.00;99996.09;5204792;28;20031;-77
2023/07/30 03:23:42;;;;;;;1.88;1.17;;;;;;;17.78;100.00;99988.50;5204924;28;20280;-76
2023/07/30 03:26:12;;;;;;;3.25;1.50;;;;;;;17.76;100.00;99987.75;5209515;28;20575;-76
2023/07/30 03:28:43;;;;;;;2.70;1.23;;;;;;;17.67;100.00;99994.56;5205688;28;20061;-73
2023/07/30 03:31:13;;;;;;;2.67;1.20;;;;;;;17.70;100.00;99998.81;5208938;28;20032;-77
2023/07/30 03:33:44;;;;;;;2.90;1.15;;;;;;;17.60;100.00;99998.63;5206120;28;20037;-74
2023/07/30 03:36:14;;;;;;;3.40;1.20;;;;;;;17.54;100.00;100000.88;5207248;28;20058;-77
2023/07/30 03:38:44;;;;;;;2.00;1.17;;;;;;;17.47;100.00;100000.47;5205277;28;20201;-75
2023/07/30 03:41:15;;;;;;;2.60;1.27;;;;;;;17.46;100.00;100003.25;5211664;28;20017;-77
2023/07/30 03:43:45;;;;;;;2.92;1.33;;;;;;;17.43;100.00;100001.66;5209324;28;20475;-74
2023/07/30 03:46:15;;;;;;;3.33;1.17;;;;;;;17.35;100.00;100006.63;5210104;28;20028;-77
2023/07/30 03:48:46;;;;;;;4.10;1.42;;;;;;;17.36;100.00;100007.50;5211733;28;20371;-74
2023/07/30 03:51:16;;;;;;;5.75;1.33;;;;;;;17.33;100.00;100013.81;5215369;28;20032;-77
2023/07/30 03:53:46;;;;;;;3.83;1.25;;;;;;;17.36;100.00;100008.38;5211326;28;20028;-75
2023/07/30 03:56:16;;;;;;;2.60;1.10;;;;;;;17.43;100.00;100014.03;5215801;28;20545;-76
2023/07/30 03:58:47;;;;;;;3.20;1.27;;;;;;;17.39;100.00;100018.69;5212205;28;20279;-75
2023/07/30 04:01:17;;;;;;;5.10;1.33;;;;;;;17.39;100.00;100018.69;5213642;28;20037;-77
2023/07/30 04:03:47;;;;;;;2.75;1.40;;;;;;;17.40;100.00;100008.97;5211314;28;20100;-74
2023/07/30 04:06:18;;;;;;;4.88;1.52;;;;;;;17.32;100.00;100016.56;5215040;28;20497;-77
2023/07/30 04:08:48;;;;;;;2.42;1.40;;;;;;;17.34;100.00;100018.16;5211162;28;20034;-74
2023/07/30 04:11:18;;;;;;;5.78;1.30;;;;;;;17.34;100.00;100012.06;5215204;28;20021;-76
2023/07/30 04:13:48;;;;;;;3.92;1.40;;;;;;;17.27;100.00;100011.63;5210194;28;20154;-74
2023/07/30 04:16:19;;;;;;;4.00;1.37;;;;;;;17.28;100.00;100009.84;5217792;28;20502;-77
2023/07/30 04:18:49;;;;;;;4.45;1.65;;;;;;;17.28;100.00;100012.47;5209034;28;20366;-75
2023/07/30 04:21:19;;;;;;;3.08;1.48;;;;;;;17.33;100.00;100018.25;5215743;28;20025;-77
2023/07/30 04:23:49;;;;;;;3.67;1.50;;;;;;;17.33;100.00;100013.81;5213230;28;20056;-76
2023/07/30 04:26:20;;;;;;;4.47;1.50;;;;;;;17.37;100.00;100019.75;5214554;28;20626;-77
2023/07/30 04:28:50;;;;;;;3.03;1.65;;;;;;;17.43;100.00;100025.44;5209488;28;20036;-76
2023/07/30 04:31:20;;;;;;;3.50;1.30;;;;;;;17.43;100.00;100029.88;5213894;28;20431;-77
2023/07/30 04:33:50;;;;;;;2.58;1.33;;;;;;;17.48;100.00;100033.88;5212266;28;20294;-76
2023/07/30 04:36:21;;;;;;;4.35;1.42;;;;;;;17.76;100.00;100027.41;5217094;28;20098;-76
2023/07/30 04:38:51;;;;;;;2.22;1.42;;;;;;;17.79;100.00;100035.97;5212160;28;20040;-76
2023/07/30 04:41:21;;;;;;;4.90;2.33;;;;;;;17.97;100.00;100033.78;5216705;28;20024;-77
2023/07/30 04:43:52;;;;;;;2.72;1.17;;;;;;;19.30;100.00;100029.47;5215863;28;20103;-77
2023/07/30 04:46:22;;;;;;;1.93;1.00;;;;;;;21.32;100.00;100025.44;5214983;28;20123;-77
2023/07/30 04:48:52;;;;;;;5.63;1.30;;;;;;;22.46;87.69;100032.72;5210601;28;20759;-77
2023/07/30 04:51:23;;;;;;;5.40;1.13;;;;;;;22.63;87.40;100026.66;5221036;28;20048;-78
2023/07/30 04:53:53;;;;;;;2.30;1.33;;;;;;;23.81;81.37;100025.72;5210638;28;20025;-77
2023/07/30 04:56:26;;;;;;;7.47;1.20;;;;;;;24.40;75.93;100021.44;5211823;28;20822;-78
2023/07/30 04:58:56;;;;;;;3.45;1.00;;;;;;;23.32;79.57;100024.34;5205469;28;20279;-78
2023/07/30 05:01:27;;;;;;;2.92;0.98;;;;;;;23.84;79.54;100023.63;5211983;28;20025;-77
2023/07/30 05:03:57;;;;;;;2.20;0.90;;;;;;;23.63;78.45;100031.03;5209725;28;20526;-75
2023/07/30 05:06:27;;;;;;;4.93;1.07;;;;;;;22.85;83.89;100028.00;5211316;28;20116;-77
2023/07/30 05:08:58;;;;;;;2.77;0.90;;;;;;;23.21;79.07;100035.19;5206706;28;20692;-74
2023/07/30 05:11:28;;;;;;;2.72;0.85;;;;;;;23.29;81.19;100027.31;5210187;28;20394;-77
2023/07/30 05:13:58;;;;;;;2.63;1.00;;;;;;;24.48;77.76;100029.53;5211028;28;20021;-76
2023/07/30 05:16:28;;;;;;;2.57;0.97;;;;;;;24.37;74.37;100023.63;5212615;28;20305;-77
2023/07/30 05:18:59;;;;;;;3.20;1.10;;;;;;;23.24;80.96;100021.59;5208494;28;20278;-75
2023/07/30 05:21:29;;;;;;;3.80;1.08;;;;;;;22.90;82.77;100033.75;5210399;28;20271;-77
2023/07/30 05:23:59;;;;;;;3.17;1.20;;;;;;;22.62;81.68;100032.97;5210183;28;20287;-76
2023/07/30 05:26:29;;;;;;;2.20;1.00;;;;;;;23.02;80.43;100029.91;5212203;28;20263;-77
2023/07/30 05:29:00;;;;;;;6.63;1.50;;;;;;;23.30;81.68;100028.97;5208416;28;20282;-77
2023/07/30 05:31:30;;;;;;;1.98;0.95;;;;;;;23.25;79.43;100027.75;5209453;28;20298;-77
2023/07/30 05:34:00;;;;;;;1.70;0.93;;;;;;;23.41;81.76;100031.47;5209737;28;20036;-77
2023/07/30 05:36:31;;;;;;;2.90;1.20;;;;;;;24.12;80.43;100027.91;5216371;28;20039;-76
2023/07/30 05:39:01;;;;;;;2.77;1.10;;;;;;;25.91;74.21;100021.47;5207245;28;20401;-77
2023/07/30 05:41:31;;;;;;;2.63;1.07;;;;;;;25.88;74.74;100021.78;5209764;28;20604;-77
2023/07/30 05:44:01;;;;;;;2.20;0.93;;;;;;;26.62;71.25;100018.97;5208294;28;20375;-77
2023/07/30 05:46:32;;;;;;;3.80;1.23;;;;;;;26.47;69.06;100029.53;5210115;28;20818;-77
2023/07/30 05:49:02;;;;;;;2.70;1.00;;;;;;;27.33;67.59;100013.47;5208129;28;20036;-77
2023/07/30 05:51:32;;;;;;;3.30;1.00;;;;;;;26.85;68.25;100018.94;5209304;28;20566;-77
2023/07/30 05:54:03;;;;;;;4.90;1.30;;;;;;;26.12;70.61;100020.97;5208509;28;20286;-77
2023/07/30 05:56:33;;;;;;;3.60;1.30;;;;;;;27.53;69.02;100013.84;5206909;28;20848;-77
2023/07/30 05:59:03;;;;;;;6.33;1.50;;;;;;;27.77;65.40;100019.97;5208662;28;20098;-78
2023/07/30 06:01:34;;;;;;;3.60;1.27;;;;;;;27.12;67.94;100023.09;5207249;28;20264;-75
2023/07/30 06:04:04;;;;;;;7.35;1.60;;;;;;;27.07;67.89;100023.56;5207965;28;20722;-77
2023/07/30 06:06:34;;;;;;;5.40;1.67;;;;;;;26.57;68.50;100032.06;5206907;28;20029;-76
2023/07/30 06:09:05;;;;;;;4.25;1.77;;;;;;;26.76;68.56;100033.38;5209771;28;20322;-77
2023/07/30 06:11:35;;;;;;;4.43;1.88;;;;;;;26.62;67.25;100029.69;5212189;28;20028;-77
2023/07/30 06:14:05;;;;;;;3.70;1.70;;;;;;;26.08;68.78;100036.56;5210349;28;20037;-77
2023/07/30 06:16:36;;;;;;;5.50;2.13;;;;;;;26.42;68.51;100033.72;5212305;28;20334;-77
2023/07/30 06:19:06;;;;;;;6.95;2.10;;;;;;;26.57;67.71;100037.44;5209814;28;20761;-77
2023/07/30 06:21:36;;;;;;;6.47;1.83;;;;;;;25.22;72.87;100030.72;5209494;28;20024;-77
2023/07/30 06:24:06;;;;;;;4.00;2.00;;;;;;;24.96;75.33;100028.06;5210729;28;20033;-77
2023/07/30 06:26:37;;;;;;;4.30;1.90;;;;;;;24.52;77.05;100036.28;5211324;28;20268;-77
2023/07/30 06:29:07;;;;;;;5.28;2.30;;;;;;;23.96;76.47;100037.59;5206120;28;20287;-77
2023/07/30 06:31:37;;;;;;;4.25;2.20;;;;;;;24.61;74.72;100029.16;5211367;28;20104;-77
2023/07/30 06:34:08;;;;;;;6.20;2.42;;;;;;;23.99;76.95;100037.28;5209144;28;20107;-77
2023/07/30 06:36:38;;;;;;;3.90;2.20;;;;;;;24.34;75.94;100038.09;5209833;28;20083;-77
2023/07/30 06:39:08;;;;;;;4.95;2.25;;;;;;;24.52;74.51;100030.94;5205521;28;20427;-77
2023/07/30 06:41:39;;;;;;;4.17;2.23;;;;;;;24.74;72.88;100035.75;5205704;28;20438;-74
2023/07/30 06:44:09;;;;;;;6.32;2.40;;;;;;;25.01;72.94;100043.63;5208838;28;20342;-77
2023/07/30 06:46:39;;;;;;;7.28;2.05;;;;;;;25.12;74.34;100040.69;5206552;28;20347;-77
2023/07/30 06:49:10;;;;;;;6.07;1.90;;;;;;;25.72;71.39;100037.78;5205419;28;20025;-77
2023/07/30 06:51:40;;;;;;;6.83;2.20;;;;;;;26.39;69.17;100034.06;5205097;28;20353;-77
2023/07/30 06:54:10;;;;;;;5.65;2.00;;;;;;;26.26;69.00;100042.59;5205775;28;20681;-77
2023/07/30 06:56:41;;;;;;;5.13;1.77;;;;;;;26.94;67.64;100036.69;5206127;28;20029;-78
2023/07/30 06:59:11;;;;;;;3.93;1.70;;;;;;;26.84;66.64;100035.19;5206539;28;20283;-77
2023/07/30 07:01:41;;;;;;;3.97;1.70;;;;;;;26.73;66.73;100028.34;5210191;28;20267;-77
2023/07/30 07:04:11;;;;;;;4.83;2.00;;;;;;;26.24;68.49;100038.41;5206774;28;20060;-77
2023/07/30 07:06:42;;;;;;;6.72;1.83;;;;;;;26.10;66.53;100039.06;5205674;28;20276;-77
2023/07/30 07:09:12;;;;;;;5.47;1.70;;;;;;;26.70;66.70;100045.81;5208281;28;20029;-77
2023/07/30 07:11:42;;;;;;;4.57;1.50;;;;;;;27.32;64.67;100041.31;5212231;28;20796;-77
2023/07/30 07:14:13;;;;;;;7.70;1.60;;;;;;;27.44;65.11;100039.91;5207509;28;20149;-77
2023/07/30 07:16:44;;;;;;;3.58;1.85;;;;;;;26.16;65.51;100041.09;5206059;28;20020;-77
2023/07/30 07:19:14;;;;;;;3.33;1.42;;;;;;;25.67;67.02;100042.78;5200012;28;20032;-76
2023/07/30 07:21:44;;;;;;;4.43;1.60;;;;;;;26.79;65.71;100032.19;5210298;28;20378;-77
2023/07/30 07:24:15;;;;;;;5.13;1.50;;;;;;;26.41;65.15;100035.56;5209489;28;20274;-77
2023/07/30 07:26:45;;;;;;;3.17;1.25;;;;;;;26.63;65.81;100042.94;5202303;28;20272;-76
2023/07/30 07:29:15;;;;;;;4.00;1.43;;;;;;;26.95;65.24;100042.91;5205865;28;20025;-76
2023/07/30 07:31:46;;;;;;;2.53;1.30;;;;;;;27.25;64.03;100050.25;5202970;28;20033;-77
2023/07/30 07:34:16;;;;;;;3.47;1.27;;;;;;;27.62;63.17;100039.69;5203598;28;20287;-77
2023/07/30 07:36:46;;;;;;;5.97;1.42;;;;;;;27.04;65.58;100058.81;5206841;28;20060;-77
2023/07/30 07:39:18;;;;;;;4.07;1.30;;;;;;;27.04;63.40;100056.13;5206352;28;20074;-77
2023/07/30 07:41:48;;;;;;;2.65;1.05;;;;;;;27.58;61.04;100055.28;5202935;28;20025;-74
2023/07/30 07:44:18;;;;;;;2.20;1.20;;;;;;;27.42;61.71;100063.41;5205006;28;20059;-77
2023/07/30 07:46:48;;;;;;;2.97;1.00;;;;;;;28.45;60.11;100042.34;5206983;28;20374;-75
2023/07/30 07:49:19;;;;;;;6.57;1.40;;;;;;;29.74;57.87;100053.44;5206689;28;20029;-77
2023/07/30 07:51:49;;;;;;;2.33;1.00;;;;;;;28.13;59.03;100042.56;5205674;28;20030;-76
2023/07/30 07:54:19;;;;;;;2.55;0.63;;;;;;;29.26;56.05;100044.06;5206650;28;20398;-77
2023/07/30 07:56:50;;;;;;;4.03;0.80;;;;;;;28.72;57.69;100055.22;5201568;28;20498;-77
2023/07/30 07:59:20;;;;;;;3.03;1.03;;;;;;;27.70;60.53;100056.59;5208288;28;20275;-77
2023/07/30 08:01:50;;;;;;;1.65;0.90;;;;;;;28.81;60.11;100046.03;5203439;28;20075;-77
2023/07/30 08:04:21;;;;;;;2.35;1.00;;;;;;;27.67;60.81;100053.41;5204957;28;20033;-77
2023/07/30 08:06:51;;;;;;;3.30;0.82;;;;;;;28.33;58.62;100049.16;5208479;28;20557;-76
2023/07/30 08:09:21;;;;;;;2.87;0.90;;;;;;;28.63;59.01;100047.41;5202740;28;20029;-77
2023/07/30 08:11:52;;;;;;;2.72;1.05;;;;;;;29.70;56.11;100046.72;5205264;28;20044;-77
2023/07/30 08:14:22;;;;;;;39.43;25.47;;;;;;;31.28;53.89;100045.16;5206686;28;20498;-77
2023/07/30 08:16:52;;;;;;;8.10;1.13;;;;;;;30.13;55.39;100041.28;5207103;28;20479;-77
2023/07/30 08:19:23;;;;;;;3.07;1.00;;;;;;;30.63;56.63;100037.59;5207236;28;20283;-77
2023/07/30 08:21:55;;;;;;;1.90;0.80;;;;;;;28.74;58.57;100050.50;5204963;28;20025;-77
2023/07/30 08:24:25;;;;;;;2.72;0.75;;;;;;;30.24;54.47;100045.31;5203870;28;20498;-75
2023/07/30 08:26:55;;;;;;;1.53;0.77;;;;;;;30.34;53.88;100045.81;5201632;28;20033;-77
2023/07/30 08:29:26;;;;;;;2.60;0.90;;;;;;;30.58;54.68;100038.19;5204954;28;20044;-76
2023/07/30 08:31:56;;;;;;;3.58;1.10;;;;;;;29.78;54.76;100049.34;5206076;28;20328;-76
2023/07/30 08:34:26;;;;;;;2.67;1.03;;;;;;;29.54;54.32;100046.97;5209746;28;20579;-76
2023/07/30 08:36:57;;;;;;;4.60;1.03;;;;;;;30.16;53.99;100048.13;5210122;28;20082;-77
2023/07/30 08:39:27;;;;;;;2.07;0.83;;;;;;;30.80;53.76;100042.50;5212614;28;20104;-76
2023/07/30 08:41:57;;;;;;;2.27;0.73;;;;;;;31.40;52.70;100048.94;5210584;28;20029;-76
2023/07/30 08:44:28;;;;;;;2.70;0.93;;;;;;;31.13;52.87;100047.16;5210107;28;20482;-76
2023/07/30 08:46:59;;;;;;;4.32;1.15;;;;;;;30.76;53.37;100045.81;5211693;28;20109;-74
2023/07/30 08:49:32;;;;;;;2.60;0.80;;;;;;;30.04;55.39;100049.66;5209587;28;20037;-76
2023/07/30 08:52:03;;;;;;;2.42;1.10;;;;;;;30.43;54.21;100044.66;5209942;28;20284;-76
2023/07/30 08:54:34;;;;;;;3.05;1.10;;;;;;;30.80;53.58;100045.19;5211972;28;20036;-77
2023/07/30 08:57:05;;;;;;;2.85;1.13;;;;;;;29.37;54.83;100050.88;5205855;28;20037;-77
2023/07/30 08:59:42;;;;;;;2.28;0.70;;;;;;;30.27;53.38;100050.31;5211588;28;20426;-77
2023/07/30 09:02:19;;;;;;;5.03;0.90;;;;;;;30.99;51.06;100044.53;5208124;28;20129;-75
2023/07/30 09:04:54;;;;;;;1.42;0.75;;;;;;;30.17;53.27;100039.84;5211199;28;20033;-73
2023/07/30 09:07:25;;;;;;;2.17;0.90;;;;;;;31.17;51.05;100042.19;5205825;28;20099;-77
2023/07/30 09:09:55;;;;;;;3.27;0.93;;;;;;;31.09;52.88;100043.16;5207110;28;20032;-76
2023/07/30 09:12:31;;;;;;;3.08;0.98;;;;;;;29.99;53.09;100038.56;5210249;28;20116;-75
2023/07/30 09:15:04;;;;;;;1.92;0.90;;;;;;;30.50;52.65;100041.00;5205655;28;20029;-73
2023/07/30 09:17:35;;;;;;;3.97;1.10;;;;;;;29.04;55.65;100034.22;5209309;28;20057;-76
2023/07/30 09:20:06;;;;;;;4.40;0.82;;;;;;;28.84;55.13;100032.22;5211593;28;20625;-76
2023/07/30 09:22:39;;;;;;;1.58;0.80;;;;;;;27.68;58.26;100036.28;5213455;28;20029;-76
2023/07/30 09:25:10;;;;;;;3.17;1.15;;;;;;;27.96;57.52;100040.19;5209521;28;20059;-75
2023/07/30 09:27:41;;;;;;;2.45;0.85;;;;;;;29.79;54.70;100021.34;5209161;28;20025;-76
2023/07/30 09:30:11;;;;;;;2.73;1.00;;;;;;;29.75;55.21;100022.78;5211835;28;20108;-75
2023/07/30 09:32:41;;;;;;;2.17;1.00;;;;;;;29.14;54.81;100029.41;5210706;28;20025;-75
2023/07/30 09:35:12;;;;;;;1.50;0.80;;;;;;;29.01;54.79;100034.59;5211012;28;20033;-74
2023/07/30 09:37:42;;;;;;;2.22;1.00;;;;;;;28.01;55.81;100043.16;5214407;28;20757;-75
2023/07/30 09:40:14;;;;;;;2.75;1.00;;;;;;;26.81;59.49;100047.13;5209280;28;20096;-73
2023/07/30 09:42:48;;;;;;;2.40;1.00;;;;;;;27.07;59.69;100036.19;5212386;28;20037;-76
2023/07/30 09:45:23;;;;;;;2.83;0.90;;;;;;;26.21;60.87;100050.28;5211228;28;20024;-74
2023/07/30 09:47:56;;;;;;;;;;;;;;;25.62;62.27;100052.28;5210055;28;20108;-75
2023/07/30 09:50:26;;;;;;;2.22;0.80;;;;;;;26.47;60.71;100047.44;5209585;28;19962;-76
2023/07/30 09:53:02;;;;;;;3.47;0.77;;;;;;;26.26;60.31;100037.22;5208101;28;20289;-76
2023/07/30 09:55:32;;;;;;;;;;;;;;;25.86;62.36;100045.19;5209463;28;20029;-76
2023/07/30 09:58:02;;;;;;;1.80;0.77;;;;;;;25.88;61.33;100056.63;5204774;28;19913;-73
2023/07/30 10:00:33;;;;;;;4.47;1.40;;;;;;;25.34;60.53;100058.88;5210174;28;20501;-76
2023/07/30 10:03:05;;;;;;;3.83;0.80;;;;;;;25.70;60.75;100065.72;5206895;28;20299;-75
2023/07/30 10:05:37;;;;;;;1.52;0.80;;;;;;;25.07;62.69;100064.38;5207712;28;20036;-76
2023/07/30 10:08:21;;;;;;;2.13;0.75;;;;;;;26.00;61.72;100059.81;5202370;28;20063;-76
2023/07/30 10:10:54;;;;;;;1.95;0.77;;;;;;;25.51;62.14;100066.00;5204433;28;20033;-75
2023/07/30 10:13:26;;;;;;;2.30;0.70;;;;;;;25.87;62.27;100062.94;5206839;28;20072;-75
2023/07/30 10:15:58;;;;;;;2.63;0.70;;;;;;;25.03;61.81;100063.03;5206000;28;20090;-75
2023/07/30 10:18:43;;;;;;;3.00;0.93;;;;;;;24.93;64.05;100068.50;5206704;28;20124;-76
2023/07/30 10:21:22;;;;;;;2.30;0.73;;;;;;;25.10;63.40;100072.09;5209435;28;20029;-75
2023/07/30 10:23:59;;;;;;;4.50;0.70;;;;;;;25.28;64.10;100072.91;5203037;28;20032;-76
2023/07/30 10:26:32;;;;;;;2.78;0.88;;;;;;;24.69;63.39;100080.84;5206150;28;20291;-75
2023/07/30 10:29:16;;;;;;;2.83;0.75;;;;;;;25.20;62.49;100079.06;5201560;28;20183;-73
2023/07/30 10:31:55;;;;;;;3.55;1.20;;;;;;;24.63;63.56;100085.97;5206745;28;20052;-75
2023/07/30 10:34:27;;;;;;;3.55;0.98;;;;;;;24.48;65.08;100080.31;5204609;28;20037;-72
2023/07/30 10:36:59;;;;;;;3.25;1.00;;;;;;;24.11;65.43;100085.00;5204384;28;20033;-75
2023/07/30 10:39:29;;;;;;;1.98;0.93;;;;;;;24.01;65.77;100094.88;5206872;28;20064;-75
2023/07/30 10:42:00;;;;;;;2.47;0.75;;;;;;;23.76;65.62;100090.25;5207589;28;20128;-75
2023/07/30 10:44:33;;;;;;;1.92;0.80;;;;;;;23.45;67.45;100096.88;5208259;28;20025;-74
2023/07/30 10:47:04;;;;;;;3.38;1.02;;;;;;;23.20;68.50;100108.19;5200266;28;20124;-74
2023/07/30 10:49:38;;;;;;;3.90;1.00;;;;;;;23.32;68.08;100093.69;5207499;28;20029;-75
2023/07/30 10:52:09;;;;;;;1.70;0.80;;;;;;;23.22;69.53;100103.53;5206031;28;20056;-74
2023/07/30 10:54:39;;;;;;;1.67;1.00;;;;;;;23.12;70.79;100105.41;5206399;28;20021;-75
2023/07/30 10:57:10;;;;;;;3.03;1.13;;;;;;;22.63;70.15;100111.94;5202308;28;20051;-71
2023/07/30 10:59:41;;;;;;;5.57;0.98;;;;;;;22.54;69.90;100108.28;5209511;28;21051;-75
2023/07/30 11:02:13;;;;;;;3.70;0.98;;;;;;;22.72;70.10;100117.25;5202556;28;20037;-73
2023/07/30 11:04:43;;;;;;;4.85;0.80;;;;;;;22.83;71.58;100109.94;5206891;28;20103;-75
2023/07/30 11:07:19;;;;;;;2.10;0.80;;;;;;;22.93;70.66;100112.56;5200486;28;20886;-73
2023/07/30 11:09:58;;;;;;;;;;;;;;;23.16;69.74;100112.13;5210831;28;20068;-73
2023/07/30 11:12:28;;;;;;;3.55;1.10;;;;;;;23.35;70.29;100106.72;5205222;28;19942;-75
2023/07/30 11:15:03;;;;;;;1.83;0.70;;;;;;;23.57;68.98;100119.69;5206798;28;20162;-75
2023/07/30 11:17:33;;;;;;;3.83;0.70;;;;;;;23.53;70.13;100114.81;5205429;28;20020;-74
2023/07/30 11:20:04;;;;;;;1.93;0.77;;;;;;;23.55;70.25;100113.66;5204384;28;20042;-73
2023/07/30 11:22:35;;;;;;;2.63;0.80;;;;;;;23.73;68.89;100117.22;5205093;28;20280;-76
2023/07/30 11:25:16;;;;;;;2.95;0.88;;;;;;;23.55;68.53;100115.50;5200349;28;20045;-75
2023/07/30 11:27:48;;;;;;;2.90;1.00;;;;;;;23.41;68.96;100111.50;5202012;28;20076;-76
2023/07/30 11:30:19;;;;;;;5.40;1.50;;;;;;;23.44;69.00;100108.53;5202985;28;20032;-74
2023/07/30 11:32:49;;;;;;;2.97;1.00;;;;;;;23.46;68.99;100114.56;5199960;28;20087;-72
2023/07/30 11:35:20;;;;;;;2.30;1.00;;;;;;;23.33;68.85;100107.88;5204701;28;20073;-74
2023/07/30 11:37:50;;;;;;;2.55;1.00;;;;;;;23.29;68.51;100106.47;5201784;28;20120;-75
2023/07/30 11:40:21;;;;;;;1.85;0.80;;;;;;;23.31;69.74;100107.16;5208987;28;20075;-76
2023/07/30 11:42:51;;;;;;;3.67;1.25;;;;;;;23.26;70.79;100112.09;5203732;28;20028;-73